Terminal Aerodrome Forecast
Issued by NWS

Home | Current Version | Previous Version | Text Only | Print | Product List | Glossary On
Versions: 1 2 3 4 5 6 7 8 9 10 11 12 13
000
FTUS43 KMQT 241100
TAFSAW
TAF
KSAW 241123Z 2412/2512 16005KT P6SM OVC100
     FM241600 15011KT P6SM OVC070
     FM241800 14013KT P6SM -RA OVC035
     FM242100 14012KT 6SM -RASN OVC035
     FM242300 12012KT 5SM -SNRA OVC025
     FM251000 15008KT 3SM -SN OVC007
      AMD LTD TO CLD VIS AND WIND 2502/2510=

USA.gov is the U.S. government's official web portal to all federal, state and local government web resources and services.